createdAt,value
2018-03-01T15:56:39.724Z,-3.20
2018-03-01T15:59:09.389Z,-3.20
2018-03-01T16:01:48.895Z,-3.50
2018-03-01T16:40:24.905Z,-4.00
2018-03-01T16:42:55.224Z,-3.60
2018-03-01T16:45:26.997Z,-3.30
2018-03-01T16:47:57.186Z,-3.30
2018-03-01T16:50:26.685Z,-3.30
2018-03-01T16:52:56.190Z,-3.30
2018-03-01T16:55:25.787Z,-3.30
2018-03-01T17:58:10.910Z,-3.30
2018-03-01T18:00:43.461Z,-4.30
2018-03-01T18:03:22.404Z,-4.60
2018-03-01T18:06:05.452Z,-4.30
2018-03-01T18:12:00.503Z,-3.90
2018-03-01T18:14:47.092Z,-3.60
2018-03-01T18:17:45.017Z,-3.70
2018-03-01T18:24:01.208Z,-3.50
2018-03-01T18:26:30.708Z,-3.80
2018-03-01T18:29:00.026Z,-3.80
2018-03-01T18:31:29.432Z,-3.60
2018-03-01T18:33:58.854Z,-3.80
2018-03-01T18:36:28.228Z,-3.80
2018-03-01T18:38:57.515Z,-3.80
2018-03-01T18:41:26.843Z,-4.30
2018-03-01T18:43:56.135Z,-4.40
2018-03-01T18:46:25.488Z,-4.50
2018-03-01T18:48:56.363Z,-4.80
2018-03-01T18:51:25.727Z,-4.80
2018-03-01T18:53:55.912Z,-4.90
2018-03-01T18:56:25.236Z,-5.10
2018-03-01T18:58:56.334Z,-5.00
2018-03-01T19:01:25.612Z,-5.10
2018-03-01T19:03:55.363Z,-5.00
2018-03-01T19:06:25.437Z,-4.70
2018-03-01T19:08:57.081Z,-5.20
2018-03-01T19:11:26.912Z,-5.60
2018-03-01T19:13:56.336Z,-5.20
2018-03-01T19:16:26.729Z,-5.10
2018-03-01T19:18:56.633Z,-5.20
2018-03-01T19:21:26.210Z,-5.40
2018-03-01T19:23:56.420Z,-5.30
2018-03-01T19:26:26.299Z,-5.30
2018-03-01T19:28:55.810Z,-5.10
2018-03-01T19:31:25.166Z,-4.90
2018-03-01T19:33:54.648Z,-4.40
2018-03-01T19:36:24.766Z,-4.40
2018-03-01T19:38:54.097Z,-4.40
2018-03-01T19:41:23.487Z,-4.30
2018-03-01T19:43:52.816Z,-4.90
2018-03-01T19:46:22.214Z,-4.90
2018-03-01T19:48:51.880Z,-4.80
2018-03-01T19:51:22.160Z,-4.90
2018-03-01T19:53:51.477Z,-4.90
2018-03-01T19:56:20.968Z,-5.40
2018-03-01T19:58:50.310Z,-5.20
2018-03-01T20:01:20.541Z,-5.00
2018-03-01T20:03:49.858Z,-5.00
2018-03-01T20:06:19.363Z,-4.60
2018-03-01T20:08:48.788Z,-4.50
2018-03-01T20:11:18.201Z,-4.70
2018-03-01T20:13:48.136Z,-4.70
2018-03-01T20:16:17.489Z,-4.60
2018-03-01T20:18:46.824Z,-4.80
2018-03-01T20:21:16.563Z,-4.80
2018-03-01T20:23:45.925Z,-4.70
2018-03-01T20:26:16.153Z,-4.40
2018-03-01T20:28:45.535Z,-4.40
2018-03-01T20:31:14.925Z,-4.40
2018-03-01T20:33:44.335Z,-4.80
2018-03-01T20:36:13.717Z,-5.30
2018-03-01T20:38:43.195Z,-5.00
2018-03-01T20:41:12.552Z,-5.60
2018-03-01T20:43:42.715Z,-5.50
2018-03-01T20:46:12.067Z,-5.60
2018-03-01T20:48:41.699Z,-5.30
2018-03-01T20:51:17.194Z,-5.30
2018-03-01T20:53:59.942Z,-5.70
2018-03-01T20:56:59.341Z,-5.40
2018-03-01T21:00:00.951Z,-5.40
2018-03-01T21:02:31.024Z,-5.70
2018-03-01T21:05:30.053Z,-5.70
2018-03-01T21:08:03.143Z,-5.70
2018-03-01T21:10:35.481Z,-5.30
2018-03-01T21:13:19.742Z,-5.00
2018-03-01T21:18:43.514Z,-5.00
2018-03-01T21:24:45.313Z,-5.50
2018-03-01T21:27:29.496Z,-5.40
2018-03-01T21:30:48.200Z,-5.30
2018-03-01T21:33:17.610Z,-5.40
2018-03-01T21:35:49.856Z,-5.20
2018-03-01T21:38:39.942Z,-4.90
2018-03-01T21:41:19.862Z,-5.00
2018-03-01T21:44:47.907Z,-5.00
2018-03-01T21:47:18.016Z,-5.80
2018-03-01T21:49:51.199Z,-5.80
2018-03-01T21:52:34.107Z,-5.60
2018-03-01T21:55:30.482Z,-5.20
2018-03-01T21:57:59.814Z,-5.20
2018-03-01T22:00:39.825Z,-5.40
2018-03-01T22:03:47.737Z,-5.00
2018-03-01T22:06:19.465Z,-5.70
2018-03-01T22:08:50.499Z,-5.90
2018-03-01T22:11:29.975Z,-5.60
2018-03-01T22:17:48.724Z,-5.50
2018-03-01T22:20:18.527Z,-5.60
2018-03-01T22:22:47.937Z,-5.10
2018-03-01T22:25:17.423Z,-5.20
2018-03-01T22:27:46.933Z,-5.50
2018-03-01T22:30:17.147Z,-5.00
